sensor_id;sensor_type;location;lat;lon;timestamp;pressure;altitude;pressure_sealevel;temperature;humidity
28306;BME280;7516;43.570;1.448;2022-07-01T00:00:46;100012.63;;;15.96;95.50
28306;BME280;7516;43.570;1.448;2022-07-01T00:03:13;100016.47;;;15.94;96.10
28306;BME280;7516;43.570;1.448;2022-07-01T00:05:42;100018.53;;;15.92;95.46
28306;BME280;7516;43.570;1.448;2022-07-01T00:08:10;100019.53;;;15.91;95.59
28306;BME280;7516;43.570;1.448;2022-07-01T00:10:37;100018.91;;;15.89;95.46
28306;BME280;7516;43.570;1.448;2022-07-01T00:13:05;100016.66;;;15.86;95.45
28306;BME280;7516;43.570;1.448;2022-07-01T00:15:33;100017.66;;;15.85;94.98
28306;BME280;7516;43.570;1.448;2022-07-01T00:18:00;100019.09;;;15.80;95.10
28306;BME280;7516;43.570;1.448;2022-07-01T00:20:29;100022.94;;;15.78;95.45
28306;BME280;7516;43.570;1.448;2022-07-01T00:22:58;100022.13;;;15.77;95.45
28306;BME280;7516;43.570;1.448;2022-07-01T00:25:25;100024.13;;;15.75;95.89
28306;BME280;7516;43.570;1.448;2022-07-01T00:27:53;100010.72;;;15.77;95.55
28306;BME280;7516;43.570;1.448;2022-07-01T00:30:20;100017.84;;;15.76;94.56
28306;BME280;7516;43.570;1.448;2022-07-01T00:32:48;100013.56;;;15.75;95.88
28306;BME280;7516;43.570;1.448;2022-07-01T00:35:15;100018.03;;;15.75;95.15
28306;BME280;7516;43.570;1.448;2022-07-01T00:37:43;100019.25;;;15.72;94.69
28306;BME280;7516;43.570;1.448;2022-07-01T00:40:12;100012.97;;;15.73;95.14
28306;BME280;7516;43.570;1.448;2022-07-01T00:42:40;100023.31;;;15.75;94.93
28306;BME280;7516;43.570;1.448;2022-07-01T00:45:10;100025.97;;;15.75;95.19
28306;BME280;7516;43.570;1.448;2022-07-01T00:47:41;100028.59;;;15.75;95.83
28306;BME280;7516;43.570;1.448;2022-07-01T00:50:10;100029.66;;;15.74;95.57
28306;BME280;7516;43.570;1.448;2022-07-01T00:52:39;100030.44;;;15.74;96.00
28306;BME280;7516;43.570;1.448;2022-07-01T00:55:11;100031.47;;;15.73;95.51
28306;BME280;7516;43.570;1.448;2022-07-01T00:57:41;100030.66;;;15.73;95.26
28306;BME280;7516;43.570;1.448;2022-07-01T01:00:10;100028.81;;;15.73;96.25
28306;BME280;7516;43.570;1.448;2022-07-01T01:02:39;100037.75;;;15.72;96.05
28306;BME280;7516;43.570;1.448;2022-07-01T01:05:08;100031.47;;;15.73;95.31
28306;BME280;7516;43.570;1.448;2022-07-01T01:07:36;100038.34;;;15.74;95.65
28306;BME280;7516;43.570;1.448;2022-07-01T01:10:04;100029.66;;;15.74;95.97
28306;BME280;7516;43.570;1.448;2022-07-01T01:12:33;100028.19;;;15.71;95.91
28306;BME280;7516;43.570;1.448;2022-07-01T01:15:01;100029.03;;;15.72;96.28
28306;BME280;7516;43.570;1.448;2022-07-01T01:17:29;100029.22;;;15.70;96.08
28306;BME280;7516;43.570;1.448;2022-07-01T01:19:56;100026.56;;;15.70;95.57
28306;BME280;7516;43.570;1.448;2022-07-01T01:22:25;100029.41;;;15.69;95.86
28306;BME280;7516;43.570;1.448;2022-07-01T01:24:53;100030.22;;;15.69;96.12
28306;BME280;7516;43.570;1.448;2022-07-01T01:27:20;100028.59;;;15.68;95.69
28306;BME280;7516;43.570;1.448;2022-07-01T01:29:48;100032.84;;;15.69;95.80
28306;BME280;7516;43.570;1.448;2022-07-01T01:32:16;100029.59;;;15.67;96.08
28306;BME280;7516;43.570;1.448;2022-07-01T01:34:43;100031.41;;;15.67;95.45
28306;BME280;7516;43.570;1.448;2022-07-01T01:37:11;100024.31;;;15.67;96.20
28306;BME280;7516;43.570;1.448;2022-07-01T01:39:40;100027.16;;;15.66;96.43
28306;BME280;7516;43.570;1.448;2022-07-01T01:42:07;100024.09;;;15.62;95.82
28306;BME280;7516;43.570;1.448;2022-07-01T01:44:35;100022.47;;;15.61;95.50
28306;BME280;7516;43.570;1.448;2022-07-01T01:47:03;100020.22;;;15.58;96.50
28306;BME280;7516;43.570;1.448;2022-07-01T01:49:30;100021.22;;;15.57;96.37
28306;BME280;7516;43.570;1.448;2022-07-01T01:51:58;100020.63;;;15.55;96.52
28306;BME280;7516;43.570;1.448;2022-07-01T01:54:26;100012.69;;;15.55;96.96
28306;BME280;7516;43.570;1.448;2022-07-01T01:56:55;100014.31;;;15.56;96.31
28306;BME280;7516;43.570;1.448;2022-07-01T01:59:23;100009.03;;;15.56;96.64
28306;BME280;7516;43.570;1.448;2022-07-01T02:01:51;100009.03;;;15.56;96.86
28306;BME280;7516;43.570;1.448;2022-07-01T02:04:18;100009.22;;;15.55;96.27
28306;BME280;7516;43.570;1.448;2022-07-01T02:06:46;100003.75;;;15.56;95.61
28306;BME280;7516;43.570;1.448;2022-07-01T02:09:14;100009.84;;;15.57;96.03
28306;BME280;7516;43.570;1.448;2022-07-01T02:11:41;100005.78;;;15.54;96.69
28306;BME280;7516;43.570;1.448;2022-07-01T02:14:10;99999.84;;;15.52;97.03
28306;BME280;7516;43.570;1.448;2022-07-01T02:16:38;100000.66;;;15.53;96.28
28306;BME280;7516;43.570;1.448;2022-07-01T02:19:05;99999.22;;;15.50;96.98
28306;BME280;7516;43.570;1.448;2022-07-01T02:21:33;100004.31;;;15.52;96.94
28306;BME280;7516;43.570;1.448;2022-07-01T02:24:00;100003.50;;;15.51;96.39
28306;BME280;7516;43.570;1.448;2022-07-01T02:26:28;100006.13;;;15.51;96.56
28306;BME280;7516;43.570;1.448;2022-07-01T02:28:55;99999.22;;;15.50;96.18
28306;BME280;7516;43.570;1.448;2022-07-01T02:31:24;99994.56;;;15.52;96.06
28306;BME280;7516;43.570;1.448;2022-07-01T02:33:52;99992.91;;;15.51;96.53
28306;BME280;7516;43.570;1.448;2022-07-01T02:36:20;99997.19;;;15.52;96.27
28306;BME280;7516;43.570;1.448;2022-07-01T02:38:47;99989.94;;;15.54;96.32
28306;BME280;7516;43.570;1.448;2022-07-01T02:41:15;99991.56;;;15.55;96.69
28306;BME280;7516;43.570;1.448;2022-07-01T02:43:42;99987.91;;;15.56;96.46
28306;BME280;7516;43.570;1.448;2022-07-01T02:46:10;99981.00;;;15.55;96.31
28306;BME280;7516;43.570;1.448;2022-07-01T02:48:38;99987.91;;;15.56;96.23
28306;BME280;7516;43.570;1.448;2022-07-01T02:51:06;99993.19;;;15.56;96.66
28306;BME280;7516;43.570;1.448;2022-07-01T02:53:34;99988.72;;;15.57;96.37
28306;BME280;7516;43.570;1.448;2022-07-01T02:56:01;99991.56;;;15.55;96.41
28306;BME280;7516;43.570;1.448;2022-07-01T02:58:29;99991.56;;;15.55;96.42
28306;BME280;7516;43.570;1.448;2022-07-01T03:00:56;99992.38;;;15.56;96.54
28306;BME280;7516;43.570;1.448;2022-07-01T03:03:23;99994.19;;;15.55;96.06
28306;BME280;7516;43.570;1.448;2022-07-01T03:05:52;99991.91;;;15.52;97.24
28306;BME280;7516;43.570;1.448;2022-07-01T03:08:20;99993.72;;;15.52;96.51
28306;BME280;7516;43.570;1.448;2022-07-01T03:10:47;99991.09;;;15.52;96.59
28306;BME280;7516;43.570;1.448;2022-07-01T03:13:15;99988.66;;;15.50;96.41
28306;BME280;7516;43.570;1.448;2022-07-01T03:15:42;99995.94;;;15.48;96.13
28306;BME280;7516;43.570;1.448;2022-07-01T03:18:10;99992.28;;;15.49;96.62
28306;BME280;7516;43.570;1.448;2022-07-01T03:20:37;99991.88;;;15.46;96.72
28306;BME280;7516;43.570;1.448;2022-07-01T03:23:06;99993.91;;;15.43;97.05
28306;BME280;7516;43.570;1.448;2022-07-01T03:25:33;99992.47;;;15.41;96.17
28306;BME280;7516;43.570;1.448;2022-07-01T03:28:02;99993.47;;;15.40;96.28
28306;BME280;7516;43.570;1.448;2022-07-01T03:30:31;99991.88;;;15.39;95.95
28306;BME280;7516;43.570;1.448;2022-07-01T03:32:59;99995.91;;;15.35;96.51
28306;BME280;7516;43.570;1.448;2022-07-01T03:35:26;99998.72;;;15.33;95.95
28306;BME280;7516;43.570;1.448;2022-07-01T03:38:07;99994.66;;;15.31;95.70
28306;BME280;7516;43.570;1.448;2022-07-01T03:40:34;99995.47;;;15.31;95.56
28306;BME280;7516;43.570;1.448;2022-07-01T03:43:02;100001.97;;;15.29;96.19
28306;BME280;7516;43.570;1.448;2022-07-01T03:45:31;100000.34;;;15.28;96.50
28306;BME280;7516;43.570;1.448;2022-07-01T03:47:58;99998.69;;;15.27;96.31
28306;BME280;7516;43.570;1.448;2022-07-01T03:50:26;100001.34;;;15.27;96.53
28306;BME280;7516;43.570;1.448;2022-07-01T03:52:54;100000.34;;;15.28;96.12
28306;BME280;7516;43.570;1.448;2022-07-01T03:55:37;100002.34;;;15.26;95.95
28306;BME280;7516;43.570;1.448;2022-07-01T03:58:05;100002.53;;;15.24;96.00
28306;BME280;7516;43.570;1.448;2022-07-01T04:00:34;99999.50;;;15.21;96.85
28306;BME280;7516;43.570;1.448;2022-07-01T04:03:02;100005.16;;;15.18;97.07
28306;BME280;7516;43.570;1.448;2022-07-01T04:05:33;100004.31;;;15.11;96.07
28306;BME280;7516;43.570;1.448;2022-07-01T04:08:01;100004.88;;;15.06;97.00
28306;BME280;7516;43.570;1.448;2022-07-01T04:10:30;100007.47;;;14.99;96.22
28306;BME280;7516;43.570;1.448;2022-07-01T04:13:01;100004.63;;;14.94;96.53
28306;BME280;7516;43.570;1.448;2022-07-01T04:15:29;100005.16;;;14.90;97.13
28306;BME280;7516;43.570;1.448;2022-07-01T04:17:56;100005.75;;;14.85;96.58
28306;BME280;7516;43.570;1.448;2022-07-01T04:20:24;100001.22;;;14.79;97.90
28306;BME280;7516;43.570;1.448;2022-07-01T04:22:51;100004.06;;;14.78;97.26
28306;BME280;7516;43.570;1.448;2022-07-01T04:25:18;100013.19;;;14.75;98.07
28306;BME280;7516;43.570;1.448;2022-07-01T04:27:45;100013.38;;;14.74;98.18
28306;BME280;7516;43.570;1.448;2022-07-01T04:30:14;100012.38;;;14.75;97.32
28306;BME280;7516;43.570;1.448;2022-07-01T04:32:42;100014.00;;;14.76;98.26
28306;BME280;7516;43.570;1.448;2022-07-01T04:35:09;100017.06;;;14.79;97.26
28306;BME280;7516;43.570;1.448;2022-07-01T04:37:38;100017.31;;;14.84;97.27
28306;BME280;7516;43.570;1.448;2022-07-01T04:40:07;100023.47;;;14.91;97.31
28306;BME280;7516;43.570;1.448;2022-07-01T04:42:35;100024.50;;;14.97;97.69
28306;BME280;7516;43.570;1.448;2022-07-01T04:45:01;100028.63;;;15.06;98.47
28306;BME280;7516;43.570;1.448;2022-07-01T04:47:30;100031.94;;;15.15;98.00
28306;BME280;7516;43.570;1.448;2022-07-01T04:49:59;100037.47;;;15.20;97.81
28306;BME280;7516;43.570;1.448;2022-07-01T04:52:28;100029.13;;;15.23;97.87
28306;BME280;7516;43.570;1.448;2022-07-01T04:54:55;100031.22;;;15.27;97.44
28306;BME280;7516;43.570;1.448;2022-07-01T04:57:23;100037.72;;;15.31;98.11
28306;BME280;7516;43.570;1.448;2022-07-01T04:59:50;100026.56;;;15.29;98.51
28306;BME280;7516;43.570;1.448;2022-07-01T05:02:18;100028.97;;;15.31;97.81
28306;BME280;7516;43.570;1.448;2022-07-01T05:04:47;100040.16;;;15.33;97.62
28306;BME280;7516;43.570;1.448;2022-07-01T05:07:14;100041.78;;;15.34;97.28
28306;BME280;7516;43.570;1.448;2022-07-01T05:09:55;100041.22;;;15.38;97.32
28306;BME280;7516;43.570;1.448;2022-07-01T05:12:23;100037.19;;;15.42;97.64
28306;BME280;7516;43.570;1.448;2022-07-01T05:14:50;100033.09;;;15.40;97.44
28306;BME280;7516;43.570;1.448;2022-07-01T05:17:18;100036.34;;;15.42;97.28
28306;BME280;7516;43.570;1.448;2022-07-01T05:19:47;100040.63;;;15.43;96.92
28306;BME280;7516;43.570;1.448;2022-07-01T05:22:46;100039.63;;;15.44;96.28
28306;BME280;7516;43.570;1.448;2022-07-01T05:25:13;100040.25;;;15.46;96.44
28306;BME280;7516;43.570;1.448;2022-07-01T05:27:41;100043.09;;;15.44;96.92
28306;BME280;7516;43.570;1.448;2022-07-01T05:30:09;100047.53;;;15.44;96.50
28306;BME280;7516;43.570;1.448;2022-07-01T05:32:37;100045.34;;;15.48;96.89
28306;BME280;7516;43.570;1.448;2022-07-01T05:35:06;100049.41;;;15.50;96.55
28306;BME280;7516;43.570;1.448;2022-07-01T05:37:34;100046.94;;;15.49;95.70
28306;BME280;7516;43.570;1.448;2022-07-01T05:40:02;100051.22;;;15.50;96.46
28306;BME280;7516;43.570;1.448;2022-07-01T05:42:29;100056.59;;;15.56;96.63
28306;BME280;7516;43.570;1.448;2022-07-01T05:44:57;100055.97;;;15.54;95.81
28306;BME280;7516;43.570;1.448;2022-07-01T05:47:24;100053.94;;;15.56;95.89
28306;BME280;7516;43.570;1.448;2022-07-01T05:49:52;100059.84;;;15.58;95.46
28306;BME280;7516;43.570;1.448;2022-07-01T05:52:20;100057.81;;;15.60;95.62
28306;BME280;7516;43.570;1.448;2022-07-01T05:54:48;100061.72;;;15.64;95.54
28306;BME280;7516;43.570;1.448;2022-07-01T05:57:16;100064.94;;;15.66;94.89
28306;BME280;7516;43.570;1.448;2022-07-01T05:59:43;100061.53;;;15.72;95.60
28306;BME280;7516;43.570;1.448;2022-07-01T06:02:11;100059.13;;;15.77;95.18
28306;BME280;7516;43.570;1.448;2022-07-01T06:04:38;100065.66;;;15.82;95.27
28306;BME280;7516;43.570;1.448;2022-07-01T06:07:05;100060.56;;;15.87;94.89
28306;BME280;7516;43.570;1.448;2022-07-01T06:09:34;100051.84;;;15.93;94.93
28306;BME280;7516;43.570;1.448;2022-07-01T06:12:02;100060.00;;;15.98;94.63
28306;BME280;7516;43.570;1.448;2022-07-01T06:14:29;100062.47;;;16.06;94.57
28306;BME280;7516;43.570;1.448;2022-07-01T06:16:58;100055.16;;;16.08;94.62
28306;BME280;7516;43.570;1.448;2022-07-01T06:19:25;100056.81;;;16.09;94.21
28306;BME280;7516;43.570;1.448;2022-07-01T06:21:52;100060.09;;;16.17;93.74
28306;BME280;7516;43.570;1.448;2022-07-01T06:24:20;100055.19;;;16.21;93.57
28306;BME280;7516;43.570;1.448;2022-07-01T06:26:49;100064.16;;;16.27;93.58
28306;BME280;7516;43.570;1.448;2022-07-01T06:29:16;100061.94;;;16.30;93.05
28306;BME280;7516;43.570;1.448;2022-07-01T06:31:44;100063.38;;;16.33;92.97
28306;BME280;7516;43.570;1.448;2022-07-01T06:34:11;100060.91;;;16.31;92.58
28306;BME280;7516;43.570;1.448;2022-07-01T06:36:39;100063.56;;;16.31;92.50
28306;BME280;7516;43.570;1.448;2022-07-01T06:39:06;100060.09;;;16.37;91.86
28306;BME280;7516;43.570;1.448;2022-07-01T06:41:34;100063.38;;;16.46;92.70
28306;BME280;7516;43.570;1.448;2022-07-01T06:44:03;100066.69;;;16.61;92.71
28306;BME280;7516;43.570;1.448;2022-07-01T06:46:32;100063.66;;;16.71;92.31
28306;BME280;7516;43.570;1.448;2022-07-01T06:49:00;100067.31;;;16.76;91.43
28306;BME280;7516;43.570;1.448;2022-07-01T06:51:27;100076.47;;;16.80;91.29
28306;BME280;7516;43.570;1.448;2022-07-01T06:53:55;100078.28;;;16.80;91.01
28306;BME280;7516;43.570;1.448;2022-07-01T06:56:22;100074.84;;;16.86;91.07
28306;BME280;7516;43.570;1.448;2022-07-01T06:58:50;100073.63;;;16.95;91.09
28306;BME280;7516;43.570;1.448;2022-07-01T07:01:19;100072.19;;;17.06;91.22
28306;BME280;7516;43.570;1.448;2022-07-01T07:03:46;100067.91;;;17.11;91.05
28306;BME280;7516;43.570;1.448;2022-07-01T07:06:14;100075.84;;;17.18;90.60
28306;BME280;7516;43.570;1.448;2022-07-01T07:08:41;100071.78;;;17.22;89.62
28306;BME280;7516;43.570;1.448;2022-07-01T07:11:09;100073.16;;;17.24;89.54
28306;BME280;7516;43.570;1.448;2022-07-01T07:13:36;100074.41;;;17.28;89.59
28306;BME280;7516;43.570;1.448;2022-07-01T07:16:04;100072.78;;;17.27;89.21
28306;BME280;7516;43.570;1.448;2022-07-01T07:18:33;100081.13;;;17.31;89.07
28306;BME280;7516;43.570;1.448;2022-07-01T07:21:01;100077.66;;;17.30;88.32
28306;BME280;7516;43.570;1.448;2022-07-01T07:23:29;100077.22;;;17.34;88.25
28306;BME280;7516;43.570;1.448;2022-07-01T07:25:58;100084.59;;;17.32;88.23
28306;BME280;7516;43.570;1.448;2022-07-01T07:28:25;100078.88;;;17.28;88.37
28306;BME280;7516;43.570;1.448;2022-07-01T07:30:53;100080.72;;;17.27;88.47
28306;BME280;7516;43.570;1.448;2022-07-01T07:33:20;100084.81;;;17.30;88.13
28306;BME280;7516;43.570;1.448;2022-07-01T07:35:49;100087.25;;;17.32;87.36
28306;BME280;7516;43.570;1.448;2022-07-01T07:38:17;100074.78;;;17.39;87.35
28306;BME280;7516;43.570;1.448;2022-07-01T07:40:45;100079.66;;;17.48;87.55
28306;BME280;7516;43.570;1.448;2022-07-01T07:43:13;100085.75;;;17.55;86.77
28306;BME280;7516;43.570;1.448;2022-07-01T07:45:40;100083.13;;;17.62;86.74
28306;BME280;7516;43.570;1.448;2022-07-01T07:48:08;100084.50;;;17.71;87.14
28306;BME280;7516;43.570;1.448;2022-07-01T07:50:36;100077.16;;;17.80;86.15
28306;BME280;7516;43.570;1.448;2022-07-01T07:53:05;100089.78;;;17.84;86.72
28306;BME280;7516;43.570;1.448;2022-07-01T07:55:32;100089.19;;;17.82;85.67
28306;BME280;7516;43.570;1.448;2022-07-01T07:58:00;100088.78;;;17.85;86.45
28306;BME280;7516;43.570;1.448;2022-07-01T08:00:27;100090.59;;;17.85;84.96
28306;BME280;7516;43.570;1.448;2022-07-01T08:02:55;100089.34;;;17.87;86.23
28306;BME280;7516;43.570;1.448;2022-07-01T08:05:23;100097.06;;;17.95;86.09
28306;BME280;7516;43.570;1.448;2022-07-01T08:07:50;100093.41;;;17.96;85.50
28306;BME280;7516;43.570;1.448;2022-07-01T08:10:19;100092.13;;;18.05;85.67
28306;BME280;7516;43.570;1.448;2022-07-01T08:12:47;100094.13;;;18.17;84.51
28306;BME280;7516;43.570;1.448;2022-07-01T08:15:14;100094.13;;;18.17;84.63
28306;BME280;7516;43.570;1.448;2022-07-01T08:17:42;100088.97;;;18.22;83.85
28306;BME280;7516;43.570;1.448;2022-07-01T08:20:10;100093.66;;;18.26;83.64
28306;BME280;7516;43.570;1.448;2022-07-01T08:22:38;100094.84;;;18.30;84.27
28306;BME280;7516;43.570;1.448;2022-07-01T08:25:06;100091.38;;;18.36;83.13
28306;BME280;7516;43.570;1.448;2022-07-01T08:27:35;100091.31;;;18.43;82.63
28306;BME280;7516;43.570;1.448;2022-07-01T08:30:03;100090.66;;;18.48;83.85
28306;BME280;7516;43.570;1.448;2022-07-01T08:32:31;100089.84;;;18.47;82.30
28306;BME280;7516;43.570;1.448;2022-07-01T08:34:58;100088.63;;;18.50;82.65
28306;BME280;7516;43.570;1.448;2022-07-01T08:37:27;100092.34;;;18.42;83.08
28306;BME280;7516;43.570;1.448;2022-07-01T08:39:54;100090.56;;;18.36;81.74
28306;BME280;7516;43.570;1.448;2022-07-01T08:42:21;100093.56;;;18.39;81.92
28306;BME280;7516;43.570;1.448;2022-07-01T08:44:50;100093.56;;;18.46;81.71
28306;BME280;7516;43.570;1.448;2022-07-01T08:47:18;100091.47;;;18.48;82.63
28306;BME280;7516;43.570;1.448;2022-07-01T08:49:46;100093.31;;;18.54;81.92
28306;BME280;7516;43.570;1.448;2022-07-01T08:52:13;100084.72;;;18.52;82.50
28306;BME280;7516;43.570;1.448;2022-07-01T08:54:41;100080.66;;;18.50;81.43
28306;BME280;7516;43.570;1.448;2022-07-01T08:57:09;100082.13;;;18.46;80.50
28306;BME280;7516;43.570;1.448;2022-07-01T08:59:37;100079.84;;;18.49;80.60
28306;BME280;7516;43.570;1.448;2022-07-01T09:02:06;100076.16;;;18.50;80.04
28306;BME280;7516;43.570;1.448;2022-07-01T09:04:34;100075.94;;;18.58;81.22
28306;BME280;7516;43.570;1.448;2022-07-01T09:07:04;100082.34;;;18.75;80.81
28306;BME280;7516;43.570;1.448;2022-07-01T09:09:35;100084.25;;;18.93;80.54
28306;BME280;7516;43.570;1.448;2022-07-01T09:12:03;100078.72;;;18.95;79.73
28306;BME280;7516;43.570;1.448;2022-07-01T09:14:35;100077.91;;;18.94;79.77
28306;BME280;7516;43.570;1.448;2022-07-01T09:17:05;100071.16;;;18.92;79.30
28306;BME280;7516;43.570;1.448;2022-07-01T09:19:34;100076.34;;;18.87;78.92
28306;BME280;7516;43.570;1.448;2022-07-01T09:22:03;100077.44;;;18.79;77.88
28306;BME280;7516;43.570;1.448;2022-07-01T09:24:33;100072.94;;;18.79;77.67
28306;BME280;7516;43.570;1.448;2022-07-01T09:27:03;100078.19;;;18.86;77.11
28306;BME280;7516;43.570;1.448;2022-07-01T09:29:36;100072.00;;;18.92;76.20
28306;BME280;7516;43.570;1.448;2022-07-01T09:32:07;100081.44;;;18.88;76.97
28306;BME280;7516;43.570;1.448;2022-07-01T09:34:40;100078.56;;;18.90;76.05
28306;BME280;7516;43.570;1.448;2022-07-01T09:37:10;100086.28;;;18.91;76.26
28306;BME280;7516;43.570;1.448;2022-07-01T09:39:43;100079.75;;;18.94;76.13
28306;BME280;7516;43.570;1.448;2022-07-01T09:42:11;100090.69;;;19.04;75.01
28306;BME280;7516;43.570;1.448;2022-07-01T09:44:52;100089.25;;;19.26;74.87
28306;BME280;7516;43.570;1.448;2022-07-01T09:47:24;100088.00;;;19.53;74.64
28306;BME280;7516;43.570;1.448;2022-07-01T09:49:51;100089.19;;;19.76;73.25
28306;BME280;7516;43.570;1.448;2022-07-01T09:52:20;100084.88;;;19.93;73.34
28306;BME280;7516;43.570;1.448;2022-07-01T09:54:48;100085.69;;;19.94;71.73
28306;BME280;7516;43.570;1.448;2022-07-01T09:57:17;100084.56;;;20.01;72.21
28306;BME280;7516;43.570;1.448;2022-07-01T09:59:45;100085.78;;;20.05;70.99
28306;BME280;7516;43.570;1.448;2022-07-01T10:02:13;100088.44;;;20.05;71.10
28306;BME280;7516;43.570;1.448;2022-07-01T10:04:47;100089.91;;;20.01;70.76
28306;BME280;7516;43.570;1.448;2022-07-01T10:07:26;100085.31;;;19.90;70.04
28306;BME280;7516;43.570;1.448;2022-07-01T10:10:15;100083.69;;;19.89;70.90
28306;BME280;7516;43.570;1.448;2022-07-01T10:12:47;100087.25;;;19.83;70.37
28306;BME280;7516;43.570;1.448;2022-07-01T10:15:18;100072.72;;;19.85;71.11
28306;BME280;7516;43.570;1.448;2022-07-01T10:17:48;100069.75;;;19.94;70.97
28306;BME280;7516;43.570;1.448;2022-07-01T10:20:19;100067.91;;;20.06;69.02
28306;BME280;7516;43.570;1.448;2022-07-01T10:22:47;100066.13;;;20.18;69.33
28306;BME280;7516;43.570;1.448;2022-07-01T10:25:38;100065.06;;;20.37;68.72
28306;BME280;7516;43.570;1.448;2022-07-01T10:28:17;100071.59;;;20.53;68.51
28306;BME280;7516;43.570;1.448;2022-07-01T10:30:53;100072.44;;;20.65;68.21
28306;BME280;7516;43.570;1.448;2022-07-01T10:33:33;100078.31;;;20.55;67.72
28306;BME280;7516;43.570;1.448;2022-07-01T10:36:08;100089.97;;;20.43;67.76
28306;BME280;7516;43.570;1.448;2022-07-01T10:39:15;100088.06;;;20.32;66.70
28306;BME280;7516;43.570;1.448;2022-07-01T10:42:04;100089.50;;;20.16;67.08
28306;BME280;7516;43.570;1.448;2022-07-01T10:44:33;100084.25;;;20.09;67.07
28306;BME280;7516;43.570;1.448;2022-07-01T10:47:05;100078.50;;;20.12;66.67
28306;BME280;7516;43.570;1.448;2022-07-01T10:49:52;100080.84;;;20.20;67.13
28306;BME280;7516;43.570;1.448;2022-07-01T10:52:21;100076.34;;;20.33;66.88
28306;BME280;7516;43.570;1.448;2022-07-01T10:54:51;100078.97;;;20.39;66.44
28306;BME280;7516;43.570;1.448;2022-07-01T10:57:37;100076.00;;;20.47;66.04
28306;BME280;7516;43.570;1.448;2022-07-01T11:00:33;100073.34;;;20.59;65.27
28306;BME280;7516;43.570;1.448;2022-07-01T11:03:13;100072.66;;;20.63;64.97
28306;BME280;7516;43.570;1.448;2022-07-01T11:05:42;100071.53;;;20.71;65.37
28306;BME280;7516;43.570;1.448;2022-07-01T11:08:12;100066.44;;;20.81;64.57
28306;BME280;7516;43.570;1.448;2022-07-01T11:10:40;100067.25;;;20.93;64.71
28306;BME280;7516;43.570;1.448;2022-07-01T11:13:09;100065.53;;;20.99;64.61
28306;BME280;7516;43.570;1.448;2022-07-01T11:15:39;100070.16;;;21.03;63.79
28306;BME280;7516;43.570;1.448;2022-07-01T11:18:07;100064.28;;;21.01;63.63
28306;BME280;7516;43.570;1.448;2022-07-01T11:20:35;100070.97;;;21.04;63.05
28306;BME280;7516;43.570;1.448;2022-07-01T11:23:03;100068.88;;;21.06;63.01
28306;BME280;7516;43.570;1.448;2022-07-01T11:25:33;100062.56;;;21.19;62.37
28306;BME280;7516;43.570;1.448;2022-07-01T11:28:01;100066.03;;;21.19;62.35
28306;BME280;7516;43.570;1.448;2022-07-01T11:30:28;100060.34;;;21.27;61.70
28306;BME280;7516;43.570;1.448;2022-07-01T11:32:57;100054.06;;;21.33;61.53
28306;BME280;7516;43.570;1.448;2022-07-01T11:35:26;100071.34;;;21.43;61.63
28306;BME280;7516;43.570;1.448;2022-07-01T11:38:13;100058.47;;;21.39;61.27
28306;BME280;7516;43.570;1.448;2022-07-01T11:41:02;100056.75;;;21.45;60.55
28306;BME280;7516;43.570;1.448;2022-07-01T11:43:32;100051.59;;;21.55;60.13
28306;BME280;7516;43.570;1.448;2022-07-01T11:46:02;100050.66;;;21.61;59.97
28306;BME280;7516;43.570;1.448;2022-07-01T11:48:32;100048.75;;;21.73;59.29
28306;BME280;7516;43.570;1.448;2022-07-01T11:51:05;100056.13;;;21.95;58.86
28306;BME280;7516;43.570;1.448;2022-07-01T11:53:32;100054.88;;;21.97;58.02
28306;BME280;7516;43.570;1.448;2022-07-01T11:56:02;100054.13;;;22.13;57.84
28306;BME280;7516;43.570;1.448;2022-07-01T11:58:43;100059.06;;;22.22;57.24
28306;BME280;7516;43.570;1.448;2022-07-01T12:01:11;100061.91;;;22.15;56.57
28306;BME280;7516;43.570;1.448;2022-07-01T12:03:38;100071.44;;;21.99;57.04
28306;BME280;7516;43.570;1.448;2022-07-01T12:06:07;100069.03;;;21.86;56.70
28306;BME280;7516;43.570;1.448;2022-07-01T12:08:35;100068.59;;;21.89;56.72
28306;BME280;7516;43.570;1.448;2022-07-01T12:11:04;100061.47;;;22.06;56.65
28306;BME280;7516;43.570;1.448;2022-07-01T12:13:36;100068.03;;;22.16;56.17
28306;BME280;7516;43.570;1.448;2022-07-01T12:16:08;100074.66;;;22.13;55.96
28306;BME280;7516;43.570;1.448;2022-07-01T12:18:35;100060.59;;;22.18;55.74
28306;BME280;7516;43.570;1.448;2022-07-01T12:21:03;100056.97;;;22.24;55.56
28306;BME280;7516;43.570;1.448;2022-07-01T12:23:31;100049.94;;;22.34;55.68
28306;BME280;7516;43.570;1.448;2022-07-01T12:26:04;100048.50;;;22.43;54.87
28306;BME280;7516;43.570;1.448;2022-07-01T12:28:37;100043.91;;;22.56;54.47
28306;BME280;7516;43.570;1.448;2022-07-01T12:31:07;100041.81;;;22.58;54.70
28306;BME280;7516;43.570;1.448;2022-07-01T12:33:36;100045.03;;;22.60;54.36
28306;BME280;7516;43.570;1.448;2022-07-01T12:36:04;100049.66;;;22.64;54.24
28306;BME280;7516;43.570;1.448;2022-07-01T12:38:32;100047.03;;;22.52;53.91
28306;BME280;7516;43.570;1.448;2022-07-01T12:41:01;100049.00;;;22.40;53.44
28306;BME280;7516;43.570;1.448;2022-07-01T12:43:31;100037.16;;;22.36;53.64
28306;BME280;7516;43.570;1.448;2022-07-01T12:46:03;100036.84;;;22.49;53.52
28306;BME280;7516;43.570;1.448;2022-07-01T12:48:48;100041.69;;;22.69;52.56
28306;BME280;7516;43.570;1.448;2022-07-01T12:51:15;100023.47;;;22.78;52.70
28306;BME280;7516;43.570;1.448;2022-07-01T12:53:43;100023.59;;;22.88;52.91
28306;BME280;7516;43.570;1.448;2022-07-01T12:56:22;100026.19;;;22.83;51.88
28306;BME280;7516;43.570;1.448;2022-07-01T12:58:52;100019.47;;;22.80;51.46
28306;BME280;7516;43.570;1.448;2022-07-01T13:01:20;100021.66;;;22.83;51.59
28306;BME280;7516;43.570;1.448;2022-07-01T13:03:48;100024.00;;;22.80;51.63
28306;BME280;7516;43.570;1.448;2022-07-01T13:06:16;100020.78;;;22.78;52.14
28306;BME280;7516;43.570;1.448;2022-07-01T13:08:43;100020.50;;;22.79;50.89
28306;BME280;7516;43.570;1.448;2022-07-01T13:11:11;100019.38;;;22.92;52.13
28306;BME280;7516;43.570;1.448;2022-07-01T13:13:39;100031.28;;;23.01;52.04